sensor_id;sensor_type;location;lat;lon;timestamp;P1;durP1;ratioP1;P2;durP2;ratioP2
45734;SDS011;31446;49.632;8.328;2023-08-06T00:02:38;3.30;;;2.88;;
45734;SDS011;31446;49.632;8.328;2023-08-06T00:17:45;5.95;;;2.67;;
45734;SDS011;31446;49.632;8.328;2023-08-06T00:32:54;3.78;;;2.42;;
45734;SDS011;31446;49.632;8.328;2023-08-06T00:48:00;4.15;;;2.67;;
45734;SDS011;31446;49.632;8.328;2023-08-06T01:03:08;3.88;;;2.40;;
45734;SDS011;31446;49.632;8.328;2023-08-06T01:18:15;5.00;;;2.60;;
45734;SDS011;31446;49.632;8.328;2023-08-06T01:33:21;5.40;;;2.72;;
45734;SDS011;31446;49.632;8.328;2023-08-06T01:48:29;4.88;;;1.80;;
45734;SDS011;31446;49.632;8.328;2023-08-06T02:03:35;9.55;;;2.50;;
45734;SDS011;31446;49.632;8.328;2023-08-06T02:18:41;5.40;;;2.80;;
45734;SDS011;31446;49.632;8.328;2023-08-06T02:33:48;3.70;;;2.53;;
45734;SDS011;31446;49.632;8.328;2023-08-06T02:48:54;3.80;;;2.05;;
45734;SDS011;31446;49.632;8.328;2023-08-06T03:04:01;4.75;;;1.70;;
45734;SDS011;31446;49.632;8.328;2023-08-06T03:19:07;4.93;;;1.65;;
45734;SDS011;31446;49.632;8.328;2023-08-06T03:34:14;6.03;;;1.55;;
45734;SDS011;31446;49.632;8.328;2023-08-06T03:49:20;5.22;;;1.58;;
45734;SDS011;31446;49.632;8.328;2023-08-06T04:04:26;3.28;;;1.40;;
45734;SDS011;31446;49.632;8.328;2023-08-06T04:19:33;1.30;;;0.40;;
45734;SDS011;31446;49.632;8.328;2023-08-06T04:34:39;0.57;;;0.30;;
45734;SDS011;31446;49.632;8.328;2023-08-06T04:49:46;4.93;;;0.30;;
45734;SDS011;31446;49.632;8.328;2023-08-06T05:04:52;3.95;;;0.40;;
45734;SDS011;31446;49.632;8.328;2023-08-06T05:19:59;0.30;;;0.20;;
45734;SDS011;31446;49.632;8.328;2023-08-06T05:35:05;0.10;;;0.10;;
45734;SDS011;31446;49.632;8.328;2023-08-06T05:50:12;1.48;;;0.20;;
45734;SDS011;31446;49.632;8.328;2023-08-06T06:05:19;0.55;;;0.20;;
45734;SDS011;31446;49.632;8.328;2023-08-06T06:20:25;0.85;;;0.20;;
45734;SDS011;31446;49.632;8.328;2023-08-06T06:35:32;0.98;;;0.30;;
45734;SDS011;31446;49.632;8.328;2023-08-06T06:50:38;1.73;;;0.25;;
45734;SDS011;31446;49.632;8.328;2023-08-06T07:05:45;0.17;;;0.13;;
45734;SDS011;31446;49.632;8.328;2023-08-06T07:20:54;0.43;;;0.15;;
45734;SDS011;31446;49.632;8.328;2023-08-06T07:36:06;0.10;;;0.10;;
45734;SDS011;31446;49.632;8.328;2023-08-06T07:51:13;1.00;;;0.13;;
45734;SDS011;31446;49.632;8.328;2023-08-06T08:06:20;0.10;;;0.10;;
45734;SDS011;31446;49.632;8.328;2023-08-06T08:21:26;1.67;;;0.30;;
45734;SDS011;31446;49.632;8.328;2023-08-06T08:36:33;0.47;;;0.30;;
45734;SDS011;31446;49.632;8.328;2023-08-06T08:51:39;1.33;;;0.30;;
45734;SDS011;31446;49.632;8.328;2023-08-06T09:06:46;0.20;;;0.20;;
45734;SDS011;31446;49.632;8.328;2023-08-06T09:21:56;0.25;;;0.10;;
45734;SDS011;31446;49.632;8.328;2023-08-06T09:37:02;1.55;;;0.10;;
45734;SDS011;31446;49.632;8.328;2023-08-06T09:52:11;0.10;;;0.10;;
45734;SDS011;31446;49.632;8.328;2023-08-06T10:07:18;2.47;;;0.10;;
45734;SDS011;31446;49.632;8.328;2023-08-06T10:22:26;2.30;;;0.20;;
45734;SDS011;31446;49.632;8.328;2023-08-06T10:37:39;0.15;;;0.15;;
45734;SDS011;31446;49.632;8.328;2023-08-06T10:52:45;5.82;;;0.20;;
45734;SDS011;31446;49.632;8.328;2023-08-06T11:07:53;0.82;;;0.20;;
45734;SDS011;31446;49.632;8.328;2023-08-06T11:22:59;0.17;;;0.17;;
45734;SDS011;31446;49.632;8.328;2023-08-06T11:38:07;0.90;;;0.30;;
45734;SDS011;31446;49.632;8.328;2023-08-06T11:53:15;0.20;;;0.20;;
45734;SDS011;31446;49.632;8.328;2023-08-06T12:08:25;0.30;;;0.30;;
45734;SDS011;31446;49.632;8.328;2023-08-06T12:23:32;1.23;;;0.38;;
45734;SDS011;31446;49.632;8.328;2023-08-06T12:38:39;1.45;;;0.88;;
45734;SDS011;31446;49.632;8.328;2023-08-06T12:53:45;5.05;;;0.60;;
45734;SDS011;31446;49.632;8.328;2023-08-06T13:08:51;1.30;;;0.50;;
45734;SDS011;31446;49.632;8.328;2023-08-06T13:23:57;0.50;;;0.40;;
45734;SDS011;31446;49.632;8.328;2023-08-06T13:39:04;0.60;;;0.20;;
45734;SDS011;31446;49.632;8.328;2023-08-06T13:54:10;0.38;;;0.30;;
45734;SDS011;31446;49.632;8.328;2023-08-06T14:09:16;0.77;;;0.40;;
45734;SDS011;31446;49.632;8.328;2023-08-06T14:24:22;0.57;;;0.40;;
45734;SDS011;31446;49.632;8.328;2023-08-06T14:39:29;0.25;;;0.22;;
45734;SDS011;31446;49.632;8.328;2023-08-06T14:54:35;0.68;;;0.25;;
45734;SDS011;31446;49.632;8.328;2023-08-06T15:09:41;1.38;;;0.30;;
45734;SDS011;31446;49.632;8.328;2023-08-06T15:24:48;0.20;;;0.10;;
45734;SDS011;31446;49.632;8.328;2023-08-06T15:39:54;1.27;;;0.30;;
45734;SDS011;31446;49.632;8.328;2023-08-06T15:55:00;0.15;;;0.10;;
45734;SDS011;31446;49.632;8.328;2023-08-06T16:10:08;0.30;;;0.20;;
45734;SDS011;31446;49.632;8.328;2023-08-06T16:25:15;2.90;;;0.60;;
45734;SDS011;31446;49.632;8.328;2023-08-06T16:40:21;3.50;;;0.47;;
45734;SDS011;31446;49.632;8.328;2023-08-06T16:55:27;0.77;;;0.20;;
45734;SDS011;31446;49.632;8.328;2023-08-06T17:10:36;1.35;;;0.40;;
45734;SDS011;31446;49.632;8.328;2023-08-06T17:25:44;2.75;;;0.60;;
45734;SDS011;31446;49.632;8.328;2023-08-06T17:40:54;0.60;;;0.40;;
45734;SDS011;31446;49.632;8.328;2023-08-06T17:56:02;2.13;;;0.20;;
45734;SDS011;31446;49.632;8.328;2023-08-06T18:11:09;0.32;;;0.22;;
45734;SDS011;31446;49.632;8.328;2023-08-06T18:26:15;0.80;;;0.20;;
45734;SDS011;31446;49.632;8.328;2023-08-06T18:41:21;0.80;;;0.30;;
45734;SDS011;31446;49.632;8.328;2023-08-06T18:56:27;0.80;;;0.32;;
45734;SDS011;31446;49.632;8.328;2023-08-06T19:11:34;1.08;;;0.38;;
45734;SDS011;31446;49.632;8.328;2023-08-06T19:26:40;2.95;;;0.22;;
45734;SDS011;31446;49.632;8.328;2023-08-06T19:41:46;0.30;;;0.10;;
45734;SDS011;31446;49.632;8.328;2023-08-06T19:56:52;2.58;;;0.13;;
45734;SDS011;31446;49.632;8.328;2023-08-06T20:11:59;3.05;;;0.47;;
45734;SDS011;31446;49.632;8.328;2023-08-06T20:27:06;1.73;;;0.35;;
45734;SDS011;31446;49.632;8.328;2023-08-06T20:42:12;1.05;;;0.32;;
45734;SDS011;31446;49.632;8.328;2023-08-06T21:44:37;4.40;;;0.63;;
45734;SDS011;31446;49.632;8.328;2023-08-06T21:59:44;1.30;;;0.50;;
45734;SDS011;31446;49.632;8.328;2023-08-06T22:14:50;2.05;;;0.82;;
45734;SDS011;31446;49.632;8.328;2023-08-06T22:29:56;4.05;;;0.55;;
45734;SDS011;31446;49.632;8.328;2023-08-06T22:45:02;4.07;;;0.80;;
45734;SDS011;31446;49.632;8.328;2023-08-06T23:00:14;1.52;;;0.80;;
45734;SDS011;31446;49.632;8.328;2023-08-06T23:15:21;2.38;;;0.80;;
45734;SDS011;31446;49.632;8.328;2023-08-06T23:30:27;5.18;;;1.13;;
45734;SDS011;31446;49.632;8.328;2023-08-06T23:45:33;7.15;;;1.20;;
